Oakfield, GA (31772)

3:33 PM EST on February 13, 2016 (GMT -0500)
Lyle Farms | | Change Station
CLOSE
Current Station
Personal Weather Station
Location: Cobb, GA
Elevation: 285 ft
Nearby Weather Stations
Active Advisory: Freeze Warning

Elev 285 ft 31.98 °N, 83.96 °W | Updated 11 minutes ago

Clear
Clear
51.6 °F
Feels Like 51.6 °F
N
10.0
Wind Variable Wind from ENE
Gusts 13.0 mph

Today
High -- | Low -- °F
--% Chance of Precip.
Yesterday
High -- | Low -- °F
Precip. -- in
Pressure 30.31 in
Visibility 10.0 miles
Clouds Clear
Dew Point 14 °F
Humidity 22%
Rainfall 0.00 in
Snow Depth Not available.
7:20 AM 6:20 PM
Waxing Crescent, 34% visible
METAR KCKF 132015Z AUTO 33012KT 10SM CLR 12/M11 A3031 RMK AO2 T01211114
Pressure 30.31 in
Visibility 10.0 miles
Clouds Clear
Dew Point 14 °F
Humidity 22%
Rainfall 0.00 in
Snow Depth Not available.
7:20 AM 6:20 PM
Waxing Crescent, 34% visible
METAR KCKF 132015Z AUTO 33012KT 10SM CLR 12/M11 A3031 RMK AO2 T01211114

10-Day Weather Forecast

Almanac

Astronomy

Feb. 13, 2016 Rise Set
Actual Time
Civil Twilight
Nautical Twilight
Astronomical Twilight
Moon
Length of Visible Light
Length of Day
Tomorrow will be .
, % of the Moon is Illuminated

Today's Extremes

State Highs State Lows

Community

WunderPhotos

Upload Photos

1,892,664 photos uploaded!

WunderBlog® & News

Nearby

Air Quality

  Air Quality AQ Index Pollutant
Not available.

Snow Depth

Station Depth Elevation

Earthquake Activity

City Distance Mag. Time & Date
Minimum magnitude displayed is 2.5.

Coastal Water Temperatures

Place Temperature

Stations

Nearby Weather Stations

Station Location Temp. Windchill Dew Point Humidity Wind Precip. Elev Updated Type
                   

Watches & Warnings

Freeze Warning
Issued: 1:32 PM CST Feb. 13, 2016 – National Weather Service

... Freeze warning in effect from 1 am EST /midnight CST/ to 9 am
EST /8 am CST/ Sunday...

The National Weather Service in Tallahassee has issued a freeze
warning... which is in effect from 1 am EST /midnight CST/ to 9 am
EST /8 am CST/ Sunday. The freeze watch is no longer in effect.

* Temperature... 27 to 30 degrees.

* Duration... 6 to 8 hours.

Precautionary/preparedness actions...

A freeze warning means sub-freezing temperatures are imminent or
highly likely. These conditions will kill crops and other
sensitive vegetation.